createdAt,value
2023-05-02T00:00:40.308Z,14.60
2023-05-02T00:04:42.156Z,14.60
2023-05-02T00:08:43.934Z,14.60
2023-05-02T00:12:45.636Z,14.60
2023-05-02T00:16:47.552Z,14.60
2023-05-02T00:20:49.262Z,14.60
2023-05-02T00:24:51.629Z,14.60
2023-05-02T00:28:53.468Z,14.40
2023-05-02T00:32:55.232Z,14.30
2023-05-02T00:36:57.181Z,14.40
2023-05-02T00:40:58.845Z,14.40
2023-05-02T00:45:00.643Z,14.50
2023-05-02T00:49:02.462Z,14.50
2023-05-02T00:53:04.775Z,14.50
2023-05-02T00:57:06.992Z,14.50
2023-05-02T01:01:12.478Z,14.30
2023-05-02T01:05:16.972Z,14.10
2023-05-02T01:09:52.130Z,14.20
2023-05-02T01:13:53.800Z,14.20
2023-05-02T01:17:56.440Z,14.30
2023-05-02T01:21:58.425Z,14.30
2023-05-02T01:26:13.650Z,14.30
2023-05-02T01:30:15.457Z,14.30
2023-05-02T01:34:18.900Z,14.30
2023-05-02T01:38:21.052Z,14.30
2023-05-02T01:42:23.104Z,14.30
2023-05-02T01:46:30.432Z,14.30
2023-05-02T01:50:32.193Z,14.30
2023-05-02T01:54:33.961Z,14.20
2023-05-02T01:58:35.893Z,14.20
2023-05-02T02:02:37.565Z,14.10
2023-05-02T02:06:46.613Z,14.10
2023-05-02T02:10:51.066Z,14.10
2023-05-02T02:15:24.464Z,14.00
2023-05-02T02:19:32.424Z,14.10
2023-05-02T02:23:40.436Z,14.10
2023-05-02T02:27:42.344Z,14.20
2023-05-02T02:31:44.026Z,14.10
2023-05-02T02:35:50.568Z,14.10
2023-05-02T02:40:29.803Z,14.20
2023-05-02T02:44:35.327Z,14.20
2023-05-02T02:48:47.967Z,14.20
2023-05-02T02:52:54.197Z,14.20
2023-05-02T02:57:19.084Z,14.10
2023-05-02T03:01:24.648Z,14.10
2023-05-02T03:05:26.436Z,14.10
2023-05-02T03:09:30.529Z,14.10
2023-05-02T03:13:32.582Z,14.00
2023-05-02T03:17:34.378Z,14.00
2023-05-02T03:21:36.590Z,13.90
2023-05-02T03:25:39.013Z,13.90
2023-05-02T03:29:40.873Z,13.80
2023-05-02T03:33:42.892Z,13.70
2023-05-02T03:37:45.475Z,13.60
2023-05-02T03:41:47.371Z,13.50
2023-05-02T03:45:50.500Z,13.40
2023-05-02T03:49:53.170Z,13.30
2023-05-02T03:53:55.121Z,13.20
2023-05-02T03:57:57.197Z,13.20
2023-05-02T04:01:59.186Z,13.20
2023-05-02T04:06:01.185Z,13.10
2023-05-02T04:10:03.247Z,13.20
2023-05-02T04:14:05.157Z,13.20
2023-05-02T04:18:08.179Z,13.20
2023-05-02T04:22:10.282Z,13.20
2023-05-02T04:26:12.024Z,13.30
2023-05-02T04:30:16.732Z,13.40
2023-05-02T04:34:18.469Z,13.60
2023-05-02T04:38:20.373Z,13.80
2023-05-02T04:42:23.642Z,13.90
2023-05-02T04:46:34.639Z,14.00
2023-05-02T04:50:36.600Z,14.20
2023-05-02T04:54:50.289Z,14.20
2023-05-02T04:58:52.108Z,14.30
2023-05-02T05:02:53.870Z,14.40
2023-05-02T05:06:58.791Z,14.50
2023-05-02T05:11:00.696Z,14.60
2023-05-02T05:15:05.239Z,14.60
2023-05-02T05:19:14.809Z,14.70
2023-05-02T05:23:22.776Z,14.80
2023-05-02T05:27:51.392Z,14.90
2023-05-02T05:31:55.886Z,14.90
2023-05-02T05:35:57.710Z,15.20
2023-05-02T05:40:07.837Z,15.50
2023-05-02T05:44:10.567Z,15.70
2023-05-02T05:48:15.478Z,15.80
2023-05-02T05:52:17.331Z,16.10
2023-05-02T05:56:19.119Z,16.40
2023-05-02T06:00:21.253Z,16.60
2023-05-02T06:04:25.886Z,16.90
2023-05-02T06:08:29.636Z,17.20
2023-05-02T06:12:49.155Z,17.60
2023-05-02T06:16:55.491Z,18.20
2023-05-02T06:20:57.997Z,18.60
2023-05-02T06:25:12.924Z,18.70
2023-05-02T06:29:15.092Z,18.70
2023-05-02T06:33:19.947Z,19.10
2023-05-02T06:37:37.869Z,19.60
2023-05-02T06:41:40.066Z,19.90
2023-05-02T06:45:49.682Z,19.90
2023-05-02T06:50:25.792Z,19.50
2023-05-02T06:54:31.070Z,19.60
2023-05-02T06:58:42.361Z,19.30
2023-05-02T07:02:50.721Z,19.40
2023-05-02T07:06:52.771Z,19.00
2023-05-02T07:10:54.707Z,19.20
2023-05-02T07:14:56.450Z,19.40
2023-05-02T07:18:58.314Z,19.90
2023-05-02T07:23:02.670Z,19.80
2023-05-02T07:27:05.387Z,20.00
2023-05-02T07:31:07.159Z,19.60
2023-05-02T07:35:09.679Z,18.40
2023-05-02T07:39:11.689Z,17.90
2023-05-02T07:43:14.418Z,17.60
2023-05-02T07:47:16.426Z,17.20
2023-05-02T07:51:20.391Z,17.10
2023-05-02T07:55:22.449Z,16.90
2023-05-02T07:59:24.241Z,17.50
2023-05-02T08:03:26.925Z,17.60
2023-05-02T08:07:28.940Z,17.60
2023-05-02T08:11:30.824Z,17.30
2023-05-02T08:15:33.176Z,18.00
2023-05-02T08:19:37.935Z,19.20
2023-05-02T08:23:41.714Z,19.60
2023-05-02T08:27:43.987Z,20.00
2023-05-02T08:31:46.037Z,20.30
2023-05-02T08:35:48.247Z,20.80
2023-05-02T08:39:50.161Z,20.80
2023-05-02T08:43:51.894Z,20.30
2023-05-02T08:47:53.740Z,19.70
2023-05-02T08:51:55.703Z,19.60
2023-05-02T08:55:57.450Z,19.70
2023-05-02T08:59:59.382Z,19.70
2023-05-02T09:04:01.185Z,20.30
2023-05-02T09:08:03.117Z,20.40
2023-05-02T09:12:05.094Z,20.20
2023-05-02T09:16:11.041Z,20.00
2023-05-02T09:20:14.083Z,20.40
2023-05-02T09:24:18.302Z,21.20
2023-05-02T09:28:20.261Z,21.40
2023-05-02T09:32:26.845Z,20.90
2023-05-02T09:36:28.622Z,21.10
2023-05-02T09:40:32.690Z,20.80
2023-05-02T09:44:37.978Z,20.30
2023-05-02T09:48:56.376Z,20.60
2023-05-02T09:53:02.642Z,21.30
2023-05-02T09:57:07.372Z,20.60
2023-05-02T10:01:14.763Z,20.70
2023-05-02T10:05:19.425Z,20.30
2023-05-02T10:09:21.815Z,20.20
2023-05-02T10:13:28.724Z,19.90
2023-05-02T10:17:39.498Z,19.80
2023-05-02T10:21:41.680Z,20.10
2023-05-02T10:25:43.525Z,20.40
2023-05-02T10:29:45.508Z,20.80
2023-05-02T10:33:47.635Z,21.10
2023-05-02T10:37:49.848Z,20.20
2023-05-02T10:41:51.954Z,19.90
2023-05-02T10:45:54.691Z,20.30
2023-05-02T10:50:00.715Z,20.60
2023-05-02T10:54:35.040Z,20.50
2023-05-02T10:58:37.415Z,19.70
2023-05-02T11:02:40.490Z,19.80
2023-05-02T11:06:59.057Z,19.70
2023-05-02T11:11:40.942Z,19.90
2023-05-02T11:15:42.723Z,19.90
2023-05-02T11:19:45.308Z,20.20
2023-05-02T11:23:47.081Z,20.40
2023-05-02T11:27:49.409Z,20.90
2023-05-02T11:31:55.828Z,20.90
2023-05-02T11:35:58.785Z,20.80
2023-05-02T11:40:13.858Z,20.80
2023-05-02T11:44:16.066Z,20.70
2023-05-02T11:48:18.865Z,20.30
2023-05-02T11:52:20.753Z,20.10
2023-05-02T11:56:26.789Z,20.30
2023-05-02T12:00:28.723Z,20.90
2023-05-02T12:04:30.591Z,21.20
2023-05-02T12:08:32.707Z,21.50
2023-05-02T12:12:34.752Z,21.40
2023-05-02T12:16:36.725Z,20.90
2023-05-02T12:20:39.420Z,20.60
2023-05-02T12:24:43.713Z,19.90
2023-05-02T12:28:50.258Z,19.70
2023-05-02T12:32:56.325Z,19.70
2023-05-02T12:36:58.715Z,20.10
2023-05-02T12:41:00.502Z,20.50
2023-05-02T12:45:02.220Z,20.60
2023-05-02T12:49:12.621Z,20.20
2023-05-02T12:53:17.728Z,20.50
2023-05-02T12:57:23.975Z,20.70
2023-05-02T13:01:25.907Z,20.70
2023-05-02T13:05:27.660Z,20.80
2023-05-02T13:09:52.846Z,20.90
2023-05-02T13:18:34.636Z,20.90
2023-05-02T13:22:39.519Z,21.40
2023-05-02T13:26:41.766Z,21.10
2023-05-02T13:30:43.558Z,21.00
2023-05-02T13:34:46.280Z,21.10
2023-05-02T13:38:48.084Z,21.30
2023-05-02T13:42:50.034Z,21.10
2023-05-02T13:47:11.492Z,21.00
2023-05-02T13:51:16.830Z,20.80
2023-05-02T13:55:28.447Z,20.60
2023-05-02T13:59:30.598Z,20.10
2023-05-02T14:03:43.099Z,19.50
2023-05-02T14:07:48.658Z,19.30
2023-05-02T14:11:53.037Z,19.10
2023-05-02T14:15:54.938Z,19.40
2023-05-02T14:19:58.024Z,20.10
2023-05-02T14:28:40.457Z,20.40
2023-05-02T14:33:03.678Z,20.70
2023-05-02T14:37:05.920Z,20.20
2023-05-02T14:41:08.979Z,19.90
2023-05-02T14:45:11.138Z,19.50
2023-05-02T14:49:12.936Z,18.80
2023-05-02T14:53:14.767Z,18.00
2023-05-02T14:57:16.702Z,17.30
2023-05-02T15:01:19.950Z,16.80
2023-05-02T15:05:22.232Z,16.40
2023-05-02T15:13:43.968Z,16.00
2023-05-02T15:17:45.966Z,15.80
2023-05-02T15:21:48.956Z,15.80
2023-05-02T15:25:54.163Z,15.80
2023-05-02T15:29:58.769Z,15.90
2023-05-02T15:34:15.267Z,15.80
2023-05-02T15:38:17.081Z,15.80
2023-05-02T15:42:27.150Z,15.80
2023-05-02T15:46:29.157Z,15.90
2023-05-02T15:50:35.063Z,16.00
2023-05-02T15:54:41.982Z,16.00
2023-05-02T15:58:44.908Z,15.90
2023-05-02T16:02:50.080Z,15.90
2023-05-02T16:06:52.053Z,15.90
2023-05-02T16:10:54.534Z,15.70
2023-05-02T16:14:56.302Z,15.60
2023-05-02T16:18:58.209Z,15.50
2023-05-02T16:23:13.159Z,15.30
2023-05-02T16:27:14.974Z,15.20
2023-05-02T16:31:27.241Z,15.30
2023-05-02T16:35:29.044Z,15.20
2023-05-02T16:39:30.995Z,15.10
2023-05-02T16:43:33.303Z,15.00
2023-05-02T16:47:35.865Z,15.10
2023-05-02T16:51:37.671Z,15.00
2023-05-02T16:55:39.591Z,14.90
2023-05-02T16:59:42.518Z,14.90
2023-05-02T17:03:50.282Z,14.80
2023-05-02T17:07:54.443Z,14.70
2023-05-02T17:17:24.992Z,14.60
2023-05-02T17:22:08.239Z,14.50
2023-05-02T17:26:18.863Z,14.50
2023-05-02T17:40:11.044Z,14.30
2023-05-02T17:59:58.819Z,14.20
2023-05-02T18:04:19.680Z,14.10
2023-05-02T18:08:27.212Z,14.10
2023-05-02T18:12:32.419Z,13.90
2023-05-02T18:17:08.450Z,13.80
2023-05-02T18:21:15.511Z,13.60
2023-05-02T18:25:25.236Z,13.60
2023-05-02T18:40:43.617Z,13.40
2023-05-02T19:58:45.844Z,12.40
2023-05-02T20:03:03.284Z,12.20
2023-05-02T20:08:29.333Z,12.10
2023-05-02T20:12:48.445Z,11.90
2023-05-02T20:43:35.869Z,11.80
2023-05-02T20:47:37.751Z,11.80
2023-05-02T20:51:52.079Z,11.90
2023-05-02T20:55:53.932Z,11.80
2023-05-02T20:59:59.469Z,11.90
2023-05-02T21:04:17.132Z,11.90
2023-05-02T21:08:22.844Z,11.90
2023-05-02T21:12:24.932Z,11.90
2023-05-02T21:16:26.848Z,11.90
2023-05-02T21:20:30.975Z,11.90
2023-05-02T21:24:32.752Z,11.90
2023-05-02T21:28:34.643Z,11.90
2023-05-02T21:32:36.434Z,11.90
2023-05-02T21:36:38.243Z,11.90
2023-05-02T21:40:39.932Z,11.90
2023-05-02T21:44:41.729Z,11.90
2023-05-02T21:48:43.532Z,11.90
2023-05-02T21:52:48.499Z,11.80
2023-05-02T21:56:50.349Z,11.80
2023-05-02T22:00:52.193Z,11.80
2023-05-02T22:04:54.137Z,11.80
2023-05-02T22:08:55.884Z,11.80
2023-05-02T22:12:57.695Z,11.80
2023-05-02T22:17:01.395Z,11.70
2023-05-02T22:21:03.772Z,11.70
2023-05-02T22:25:06.066Z,11.70
2023-05-02T22:29:07.859Z,11.70
2023-05-02T22:33:09.904Z,11.70
2023-05-02T22:37:12.624Z,11.70
2023-05-02T22:41:14.322Z,11.70
2023-05-02T22:45:16.204Z,11.70
2023-05-02T22:49:19.827Z,11.70
2023-05-02T22:53:25.075Z,11.70
2023-05-02T22:57:26.970Z,11.60
2023-05-02T23:01:28.934Z,11.60
2023-05-02T23:05:30.714Z,11.60
2023-05-02T23:09:32.480Z,11.60
2023-05-02T23:13:34.170Z,11.60
2023-05-02T23:17:40.934Z,11.60
2023-05-02T23:21:42.877Z,11.60
2023-05-02T23:25:44.582Z,11.70
2023-05-02T23:29:48.090Z,11.60
2023-05-02T23:33:49.792Z,11.60
2023-05-02T23:37:52.445Z,11.60
2023-05-02T23:41:54.297Z,11.60
2023-05-02T23:45:56.162Z,11.50
2023-05-02T23:49:57.850Z,11.50
2023-05-02T23:53:59.525Z,11.60
2023-05-02T23:58:01.230Z,11.50
